sensor_id;sensor_type;location;lat;lon;timestamp;pressure;altitude;pressure_sealevel;temperature;humidity
53908;BME280;40469;47.998;7.794;2023-12-20T00:00:59;99269.31;;;6.04;100.00
53908;BME280;40469;47.998;7.794;2023-12-20T00:03:25;99265.84;;;6.04;100.00
53908;BME280;40469;47.998;7.794;2023-12-20T00:05:50;99263.19;;;5.99;100.00
53908;BME280;40469;47.998;7.794;2023-12-20T00:08:16;99240.66;;;5.95;100.00
53908;BME280;40469;47.998;7.794;2023-12-20T00:10:41;99245.88;;;5.97;100.00
53908;BME280;40469;47.998;7.794;2023-12-20T00:13:07;99242.50;;;6.02;100.00
53908;BME280;40469;47.998;7.794;2023-12-20T00:15:33;99226.91;;;6.01;100.00
53908;BME280;40469;47.998;7.794;2023-12-20T00:17:59;99225.19;;;6.01;100.00
53908;BME280;40469;47.998;7.794;2023-12-20T00:20:24;99224.22;;;5.93;100.00
53908;BME280;40469;47.998;7.794;2023-12-20T00:22:50;99225.84;;;5.86;100.00
53908;BME280;40469;47.998;7.794;2023-12-20T00:25:15;99215.53;;;5.93;100.00
53908;BME280;40469;47.998;7.794;2023-12-20T00:27:40;99211.22;;;5.92;100.00
53908;BME280;40469;47.998;7.794;2023-12-20T00:30:06;99225.91;;;5.89;100.00
53908;BME280;40469;47.998;7.794;2023-12-20T00:32:32;99228.59;;;5.97;100.00
53908;BME280;40469;47.998;7.794;2023-12-20T00:34:57;99241.44;;;5.91;100.00
53908;BME280;40469;47.998;7.794;2023-12-20T00:37:22;99237.03;;;5.84;100.00
53908;BME280;40469;47.998;7.794;2023-12-20T00:39:49;99234.44;;;5.85;100.00
53908;BME280;40469;47.998;7.794;2023-12-20T00:42:14;99238.69;;;5.79;100.00
53908;BME280;40469;47.998;7.794;2023-12-20T00:44:39;99230.78;;;5.69;100.00
53908;BME280;40469;47.998;7.794;2023-12-20T00:47:05;99218.53;;;5.59;100.00
53908;BME280;40469;47.998;7.794;2023-12-20T00:49:30;99230.44;;;5.46;100.00
53908;BME280;40469;47.998;7.794;2023-12-20T00:51:56;99233.81;;;5.39;100.00
53908;BME280;40469;47.998;7.794;2023-12-20T00:54:21;99217.22;;;5.26;100.00
53908;BME280;40469;47.998;7.794;2023-12-20T00:56:46;99232.59;;;5.19;100.00
53908;BME280;40469;47.998;7.794;2023-12-20T00:59:12;99233.31;;;5.10;100.00
53908;BME280;40469;47.998;7.794;2023-12-20T01:01:37;99237.75;;;5.16;100.00
53908;BME280;40469;47.998;7.794;2023-12-20T01:04:03;99242.75;;;5.05;100.00
53908;BME280;40469;47.998;7.794;2023-12-20T01:06:29;99234.09;;;5.04;100.00
53908;BME280;40469;47.998;7.794;2023-12-20T01:08:54;99233.94;;;4.95;100.00
53908;BME280;40469;47.998;7.794;2023-12-20T01:11:19;99233.13;;;4.98;100.00
53908;BME280;40469;47.998;7.794;2023-12-20T01:13:45;99213.22;;;4.93;100.00
53908;BME280;40469;47.998;7.794;2023-12-20T01:16:10;99229.47;;;4.85;100.00
53908;BME280;40469;47.998;7.794;2023-12-20T01:18:36;99228.69;;;4.89;100.00
53908;BME280;40469;47.998;7.794;2023-12-20T01:21:05;99220.91;;;4.87;100.00
53908;BME280;40469;47.998;7.794;2023-12-20T01:23:31;99238.94;;;4.84;100.00
53908;BME280;40469;47.998;7.794;2023-12-20T01:25:56;99228.56;;;4.83;100.00
53908;BME280;40469;47.998;7.794;2023-12-20T01:28:21;99229.50;;;4.86;100.00
53908;BME280;40469;47.998;7.794;2023-12-20T01:30:47;99220.88;;;4.86;100.00
53908;BME280;40469;47.998;7.794;2023-12-20T01:33:12;99226.94;;;4.88;100.00
53908;BME280;40469;47.998;7.794;2023-12-20T01:35:38;99222.56;;;4.84;100.00
53908;BME280;40469;47.998;7.794;2023-12-20T01:38:03;99214.69;;;4.78;100.00
53908;BME280;40469;47.998;7.794;2023-12-20T01:40:29;99225.19;;;4.87;100.00
53908;BME280;40469;47.998;7.794;2023-12-20T01:43:08;99226.78;;;4.79;100.00
53908;BME280;40469;47.998;7.794;2023-12-20T01:45:34;99226.72;;;4.75;100.00
53908;BME280;40469;47.998;7.794;2023-12-20T01:47:59;99225.84;;;4.75;100.00
53908;BME280;40469;47.998;7.794;2023-12-20T01:50:27;99225.13;;;4.82;100.00
53908;BME280;40469;47.998;7.794;2023-12-20T01:52:55;99212.94;;;4.78;100.00
53908;BME280;40469;47.998;7.794;2023-12-20T01:55:23;99210.50;;;4.84;100.00
53908;BME280;40469;47.998;7.794;2023-12-20T01:57:50;99209.56;;;4.81;100.00
53908;BME280;40469;47.998;7.794;2023-12-20T02:00:16;99206.97;;;4.81;100.00
53908;BME280;40469;47.998;7.794;2023-12-20T02:02:44;99206.03;;;4.75;100.00
53908;BME280;40469;47.998;7.794;2023-12-20T02:05:10;99206.84;;;4.74;100.00
53908;BME280;40469;47.998;7.794;2023-12-20T02:07:36;99205.97;;;4.72;100.00
53908;BME280;40469;47.998;7.794;2023-12-20T02:10:02;99218.31;;;4.87;100.00
53908;BME280;40469;47.998;7.794;2023-12-20T02:12:29;99205.28;;;4.83;100.00
53908;BME280;40469;47.998;7.794;2023-12-20T02:14:54;99211.28;;;4.82;100.00
53908;BME280;40469;47.998;7.794;2023-12-20T02:17:20;99208.66;;;4.77;100.00
53908;BME280;40469;47.998;7.794;2023-12-20T02:19:45;99199.13;;;4.76;100.00
53908;BME280;40469;47.998;7.794;2023-12-20T02:22:11;99204.31;;;4.78;100.00
53908;BME280;40469;47.998;7.794;2023-12-20T02:24:37;99196.53;;;4.76;100.00
53908;BME280;40469;47.998;7.794;2023-12-20T02:27:02;99201.75;;;4.78;100.00
53908;BME280;40469;47.998;7.794;2023-12-20T02:29:28;99197.50;;;4.81;100.00
53908;BME280;40469;47.998;7.794;2023-12-20T02:31:53;99209.41;;;4.71;100.00
53908;BME280;40469;47.998;7.794;2023-12-20T02:34:19;99195.63;;;4.72;100.00
53908;BME280;40469;47.998;7.794;2023-12-20T02:36:44;99200.00;;;4.75;100.00
53908;BME280;40469;47.998;7.794;2023-12-20T02:39:09;99196.44;;;4.70;100.00
53908;BME280;40469;47.998;7.794;2023-12-20T02:41:35;99189.56;;;4.70;100.00
53908;BME280;40469;47.998;7.794;2023-12-20T02:44:01;99199.03;;;4.70;100.00
53908;BME280;40469;47.998;7.794;2023-12-20T02:46:27;99194.75;;;4.72;100.00
53908;BME280;40469;47.998;7.794;2023-12-20T02:48:52;99195.59;;;4.71;100.00
53908;BME280;40469;47.998;7.794;2023-12-20T02:51:18;99193.78;;;4.65;100.00
53908;BME280;40469;47.998;7.794;2023-12-20T02:53:43;99192.97;;;4.68;100.00
53908;BME280;40469;47.998;7.794;2023-12-20T02:56:08;99197.28;;;4.69;100.00
53908;BME280;40469;47.998;7.794;2023-12-20T02:58:34;99192.00;;;4.63;100.00
53908;BME280;40469;47.998;7.794;2023-12-20T03:00:59;99200.66;;;4.65;100.00
53908;BME280;40469;47.998;7.794;2023-12-20T03:03:24;99208.47;;;4.66;100.00
53908;BME280;40469;47.998;7.794;2023-12-20T03:05:50;99201.50;;;4.64;100.00
53908;BME280;40469;47.998;7.794;2023-12-20T03:08:15;99203.22;;;4.63;100.00
53908;BME280;40469;47.998;7.794;2023-12-20T03:10:41;99214.47;;;4.65;100.00
53908;BME280;40469;47.998;7.794;2023-12-20T03:13:06;99206.66;;;4.64;100.00
53908;BME280;40469;47.998;7.794;2023-12-20T03:15:31;99205.84;;;4.65;100.00
53908;BME280;40469;47.998;7.794;2023-12-20T03:17:57;99207.50;;;4.61;100.00
53908;BME280;40469;47.998;7.794;2023-12-20T03:20:24;99203.09;;;4.55;100.00
53908;BME280;40469;47.998;7.794;2023-12-20T03:22:51;99204.88;;;4.60;100.00
53908;BME280;40469;47.998;7.794;2023-12-20T03:25:16;99204.03;;;4.59;100.00
53908;BME280;40469;47.998;7.794;2023-12-20T03:27:41;99223.84;;;4.60;100.00
53908;BME280;40469;47.998;7.794;2023-12-20T03:30:07;99220.44;;;4.61;100.00
53908;BME280;40469;47.998;7.794;2023-12-20T03:32:33;99216.09;;;4.60;100.00
53908;BME280;40469;47.998;7.794;2023-12-20T03:34:58;99210.88;;;4.59;100.00
53908;BME280;40469;47.998;7.794;2023-12-20T03:37:23;99220.38;;;4.58;100.00
53908;BME280;40469;47.998;7.794;2023-12-20T03:39:49;99220.38;;;4.58;100.00
53908;BME280;40469;47.998;7.794;2023-12-20T03:42:14;99209.94;;;4.53;100.00
53908;BME280;40469;47.998;7.794;2023-12-20T03:44:39;99222.09;;;4.58;100.00
53908;BME280;40469;47.998;7.794;2023-12-20T03:47:07;99216.09;;;4.60;100.00
53908;BME280;40469;47.998;7.794;2023-12-20T03:49:33;99216.81;;;4.53;100.00
53908;BME280;40469;47.998;7.794;2023-12-20T03:51:58;99223.03;;;4.63;100.00
53908;BME280;40469;47.998;7.794;2023-12-20T03:54:24;99229.97;;;4.65;100.00
53908;BME280;40469;47.998;7.794;2023-12-20T03:56:49;99222.19;;;4.64;100.00
53908;BME280;40469;47.998;7.794;2023-12-20T03:59:15;99219.53;;;4.59;100.00
53908;BME280;40469;47.998;7.794;2023-12-20T04:01:44;99214.31;;;4.56;100.00
53908;BME280;40469;47.998;7.794;2023-12-20T04:04:13;99217.84;;;4.61;100.00
53908;BME280;40469;47.998;7.794;2023-12-20T04:06:38;99220.41;;;4.60;100.00
53908;BME280;40469;47.998;7.794;2023-12-20T04:09:04;99222.97;;;4.60;100.00
53908;BME280;40469;47.998;7.794;2023-12-20T04:11:29;99218.75;;;4.63;100.00
53908;BME280;40469;47.998;7.794;2023-12-20T04:13:55;99217.03;;;4.65;100.00
53908;BME280;40469;47.998;7.794;2023-12-20T04:16:20;99214.47;;;4.65;100.00
53908;BME280;40469;47.998;7.794;2023-12-20T04:18:46;99212.78;;;4.67;100.00
53908;BME280;40469;47.998;7.794;2023-12-20T04:21:11;99205.75;;;4.60;100.00
53908;BME280;40469;47.998;7.794;2023-12-20T04:23:36;99213.53;;;4.62;100.00
53908;BME280;40469;47.998;7.794;2023-12-20T04:26:02;99231.66;;;4.63;100.00
53908;BME280;40469;47.998;7.794;2023-12-20T04:28:27;99243.00;;;4.70;100.00
53908;BME280;40469;47.998;7.794;2023-12-20T04:30:55;99228.38;;;4.72;100.00
53908;BME280;40469;47.998;7.794;2023-12-20T04:33:21;99240.38;;;4.68;100.00
53908;BME280;40469;47.998;7.794;2023-12-20T04:35:46;99243.00;;;4.70;100.00
53908;BME280;40469;47.998;7.794;2023-12-20T04:38:11;99253.34;;;4.70;100.00
53908;BME280;40469;47.998;7.794;2023-12-20T04:40:37;99255.06;;;4.71;100.00
53908;BME280;40469;47.998;7.794;2023-12-20T04:43:02;99256.78;;;4.70;100.00
53908;BME280;40469;47.998;7.794;2023-12-20T04:45:28;99247.41;;;4.75;100.00
53908;BME280;40469;47.998;7.794;2023-12-20T04:47:53;99262.03;;;4.73;100.00
53908;BME280;40469;47.998;7.794;2023-12-20T04:50:18;99265.44;;;4.72;100.00
53908;BME280;40469;47.998;7.794;2023-12-20T04:52:45;99262.88;;;4.72;100.00
53908;BME280;40469;47.998;7.794;2023-12-20T04:55:10;99255.25;;;4.80;100.00
53908;BME280;40469;47.998;7.794;2023-12-20T04:57:35;99243.13;;;4.78;100.00
53908;BME280;40469;47.998;7.794;2023-12-20T05:00:01;99262.06;;;4.75;100.00
53908;BME280;40469;47.998;7.794;2023-12-20T05:02:26;99269.06;;;4.81;100.00
53908;BME280;40469;47.998;7.794;2023-12-20T05:04:51;99261.31;;;4.81;100.00
53908;BME280;40469;47.998;7.794;2023-12-20T05:07:17;99257.06;;;4.84;100.00
53908;BME280;40469;47.998;7.794;2023-12-20T05:09:42;99251.81;;;4.81;100.00
53908;BME280;40469;47.998;7.794;2023-12-20T05:12:08;99254.31;;;4.75;100.00
53908;BME280;40469;47.998;7.794;2023-12-20T05:14:33;99260.31;;;4.74;100.00
53908;BME280;40469;47.998;7.794;2023-12-20T05:16:58;99259.50;;;4.78;100.00
53908;BME280;40469;47.998;7.794;2023-12-20T05:19:24;99278.47;;;4.77;100.00
53908;BME280;40469;47.998;7.794;2023-12-20T05:21:50;99276.00;;;4.83;100.00
53908;BME280;40469;47.998;7.794;2023-12-20T05:24:15;99271.69;;;4.82;100.00
53908;BME280;40469;47.998;7.794;2023-12-20T05:26:40;99281.16;;;4.83;100.00
53908;BME280;40469;47.998;7.794;2023-12-20T05:29:06;99272.44;;;4.78;100.00
53908;BME280;40469;47.998;7.794;2023-12-20T05:31:31;99279.41;;;4.81;100.00
53908;BME280;40469;47.998;7.794;2023-12-20T05:33:57;99283.72;;;4.80;100.00
53908;BME280;40469;47.998;7.794;2023-12-20T05:36:22;99282.78;;;4.78;100.00
53908;BME280;40469;47.998;7.794;2023-12-20T05:38:47;99285.47;;;4.83;100.00
53908;BME280;40469;47.998;7.794;2023-12-20T05:41:13;99288.09;;;4.84;100.00
53908;BME280;40469;47.998;7.794;2023-12-20T05:43:38;99292.50;;;4.90;100.00
53908;BME280;40469;47.998;7.794;2023-12-20T05:46:04;99292.50;;;4.90;100.00
53908;BME280;40469;47.998;7.794;2023-12-20T05:48:29;99292.50;;;4.90;100.00
53908;BME280;40469;47.998;7.794;2023-12-20T05:50:55;99300.22;;;4.88;100.00
53908;BME280;40469;47.998;7.794;2023-12-20T05:53:20;99295.03;;;4.85;100.00
53908;BME280;40469;47.998;7.794;2023-12-20T05:55:46;99294.28;;;4.94;100.00
53908;BME280;40469;47.998;7.794;2023-12-20T05:58:12;99296.78;;;4.88;100.00
53908;BME280;40469;47.998;7.794;2023-12-20T06:00:37;99301.13;;;4.90;100.00
53908;BME280;40469;47.998;7.794;2023-12-20T06:03:03;99307.97;;;4.85;100.00
53908;BME280;40469;47.998;7.794;2023-12-20T06:05:30;99306.28;;;4.87;100.00
53908;BME280;40469;47.998;7.794;2023-12-20T06:07:55;99312.38;;;4.91;100.00
53908;BME280;40469;47.998;7.794;2023-12-20T06:10:26;99314.13;;;4.93;100.00
53908;BME280;40469;47.998;7.794;2023-12-20T06:12:51;99315.03;;;4.96;100.00
53908;BME280;40469;47.998;7.794;2023-12-20T06:15:17;99321.94;;;4.95;100.00
53908;BME280;40469;47.998;7.794;2023-12-20T06:17:43;99329.78;;;5.00;100.00
53908;BME280;40469;47.998;7.794;2023-12-20T06:20:08;99319.47;;;5.01;100.00
53908;BME280;40469;47.998;7.794;2023-12-20T06:22:35;99321.09;;;4.96;100.00
53908;BME280;40469;47.998;7.794;2023-12-20T06:25:01;99323.63;;;4.93;100.00
53908;BME280;40469;47.998;7.794;2023-12-20T06:27:27;99327.16;;;4.98;100.00
53908;BME280;40469;47.998;7.794;2023-12-20T06:29:52;99322.75;;;4.92;100.00
53908;BME280;40469;47.998;7.794;2023-12-20T06:32:17;99335.69;;;4.94;100.00
53908;BME280;40469;47.998;7.794;2023-12-20T06:34:43;99336.63;;;4.96;100.00
53908;BME280;40469;47.998;7.794;2023-12-20T06:37:08;99331.44;;;4.98;100.00
53908;BME280;40469;47.998;7.794;2023-12-20T06:39:33;99325.34;;;4.94;100.00
53908;BME280;40469;47.998;7.794;2023-12-20T06:41:59;99323.69;;;4.98;100.00
53908;BME280;40469;47.998;7.794;2023-12-20T06:44:25;99328.03;;;4.99;100.00
53908;BME280;40469;47.998;7.794;2023-12-20T06:46:50;99335.88;;;5.03;100.00
53908;BME280;40469;47.998;7.794;2023-12-20T06:49:15;99339.38;;;5.05;100.00
53908;BME280;40469;47.998;7.794;2023-12-20T06:51:44;99349.59;;;4.99;100.00
53908;BME280;40469;47.998;7.794;2023-12-20T06:54:09;99346.09;;;4.97;100.00
53908;BME280;40469;47.998;7.794;2023-12-20T06:56:34;99349.47;;;4.91;100.00
53908;BME280;40469;47.998;7.794;2023-12-20T06:59:00;99354.53;;;4.87;100.00
53908;BME280;40469;47.998;7.794;2023-12-20T07:01:25;99363.19;;;4.87;100.00
53908;BME280;40469;47.998;7.794;2023-12-20T07:03:50;99352.91;;;4.92;100.00
53908;BME280;40469;47.998;7.794;2023-12-20T07:06:16;99361.47;;;4.88;100.00
53908;BME280;40469;47.998;7.794;2023-12-20T07:08:42;99360.63;;;4.89;100.00
53908;BME280;40469;47.998;7.794;2023-12-20T07:11:07;99363.13;;;4.84;100.00
53908;BME280;40469;47.998;7.794;2023-12-20T07:13:33;99358.06;;;4.89;100.00
53908;BME280;40469;47.998;7.794;2023-12-20T07:15:58;99364.94;;;4.90;100.00
53908;BME280;40469;47.998;7.794;2023-12-20T07:18:27;99377.09;;;4.94;100.00
53908;BME280;40469;47.998;7.794;2023-12-20T07:20:52;99372.84;;;4.98;100.00
53908;BME280;40469;47.998;7.794;2023-12-20T07:23:19;99379.75;;;4.97;100.00
53908;BME280;40469;47.998;7.794;2023-12-20T07:25:45;99397.72;;;4.89;100.00
53908;BME280;40469;47.998;7.794;2023-12-20T07:28:10;99398.56;;;4.88;100.00
53908;BME280;40469;47.998;7.794;2023-12-20T07:30:36;99402.84;;;4.88;100.00
53908;BME280;40469;47.998;7.794;2023-12-20T07:33:01;99402.97;;;4.92;100.00
53908;BME280;40469;47.998;7.794;2023-12-20T07:35:27;99407.25;;;4.92;100.00
53908;BME280;40469;47.998;7.794;2023-12-20T07:37:53;99406.47;;;4.96;100.00
53908;BME280;40469;47.998;7.794;2023-12-20T07:40:18;99409.03;;;4.94;100.00
53908;BME280;40469;47.998;7.794;2023-12-20T07:42:44;99418.41;;;4.89;100.00
53908;BME280;40469;47.998;7.794;2023-12-20T07:45:09;99412.38;;;4.90;100.00
53908;BME280;40469;47.998;7.794;2023-12-20T07:47:35;99420.25;;;4.95;100.00
53908;BME280;40469;47.998;7.794;2023-12-20T07:50:01;99417.56;;;4.90;100.00
53908;BME280;40469;47.998;7.794;2023-12-20T07:52:29;99430.75;;;5.01;100.00
53908;BME280;40469;47.998;7.794;2023-12-20T07:54:54;99422.19;;;5.05;100.00
53908;BME280;40469;47.998;7.794;2023-12-20T07:57:20;99424.56;;;4.94;100.00
53908;BME280;40469;47.998;7.794;2023-12-20T07:59:46;99418.44;;;4.91;100.00
53908;BME280;40469;47.998;7.794;2023-12-20T08:02:11;99425.44;;;4.95;100.00
53908;BME280;40469;47.998;7.794;2023-12-20T08:04:36;99435.88;;;5.00;100.00
53908;BME280;40469;47.998;7.794;2023-12-20T08:07:02;99427.16;;;4.94;100.00
53908;BME280;40469;47.998;7.794;2023-12-20T08:09:28;99425.28;;;4.87;100.00
53908;BME280;40469;47.998;7.794;2023-12-20T08:11:53;99420.91;;;4.85;100.00
53908;BME280;40469;47.998;7.794;2023-12-20T08:14:18;99431.38;;;4.91;100.00
53908;BME280;40469;47.998;7.794;2023-12-20T08:16:44;99431.44;;;4.92;100.00
53908;BME280;40469;47.998;7.794;2023-12-20T08:19:09;99437.53;;;4.98;100.00
53908;BME280;40469;47.998;7.794;2023-12-20T08:21:34;99440.13;;;4.98;100.00
53908;BME280;40469;47.998;7.794;2023-12-20T08:24:00;99435.72;;;4.92;100.00
53908;BME280;40469;47.998;7.794;2023-12-20T08:26:28;99446.13;;;4.95;100.00
53908;BME280;40469;47.998;7.794;2023-12-20T08:28:53;99451.25;;;4.93;100.00
53908;BME280;40469;47.998;7.794;2023-12-20T08:31:19;99447.03;;;4.97;100.00
53908;BME280;40469;47.998;7.794;2023-12-20T08:33:45;99446.16;;;4.97;100.00
53908;BME280;40469;47.998;7.794;2023-12-20T08:36:12;99451.34;;;4.97;100.00
53908;BME280;40469;47.998;7.794;2023-12-20T08:38:37;99452.16;;;4.96;100.00
53908;BME280;40469;47.998;7.794;2023-12-20T08:41:03;99456.63;;;5.03;100.00
53908;BME280;40469;47.998;7.794;2023-12-20T08:43:32;99453.09;;;4.99;100.00
53908;BME280;40469;47.998;7.794;2023-12-20T08:45:59;99465.31;;;5.05;100.00
53908;BME280;40469;47.998;7.794;2023-12-20T08:48:24;99468.78;;;5.05;100.00
53908;BME280;40469;47.998;7.794;2023-12-20T08:50:49;99473.03;;;5.03;100.00
53908;BME280;40469;47.998;7.794;2023-12-20T08:53:17;99477.31;;;5.03;100.00
53908;BME280;40469;47.998;7.794;2023-12-20T08:55:42;99484.22;;;5.02;100.00
53908;BME280;40469;47.998;7.794;2023-12-20T08:58:07;99482.53;;;5.04;100.00
53908;BME280;40469;47.998;7.794;2023-12-20T09:00:34;99480.81;;;5.03;100.00
53908;BME280;40469;47.998;7.794;2023-12-20T09:03:00;99491.09;;;5.00;100.00
53908;BME280;40469;47.998;7.794;2023-12-20T09:05:26;99484.13;;;4.96;100.00
53908;BME280;40469;47.998;7.794;2023-12-20T09:07:51;99493.69;;;5.00;100.00
53908;BME280;40469;47.998;7.794;2023-12-20T09:10:16;99494.56;;;5.02;100.00
53908;BME280;40469;47.998;7.794;2023-12-20T09:12:47;99503.13;;;4.98;100.00
53908;BME280;40469;47.998;7.794;2023-12-20T09:15:13;99495.41;;;5.00;100.00
53908;BME280;40469;47.998;7.794;2023-12-20T09:17:38;99504.97;;;5.04;100.00
53908;BME280;40469;47.998;7.794;2023-12-20T09:20:05;99504.94;;;5.02;100.00
53908;BME280;40469;47.998;7.794;2023-12-20T09:22:33;99507.47;;;5.01;100.00
53908;BME280;40469;47.998;7.794;2023-12-20T09:24:59;99516.06;;;4.98;100.00
53908;BME280;40469;47.998;7.794;2023-12-20T09:27:24;99513.56;;;5.03;100.00
53908;BME280;40469;47.998;7.794;2023-12-20T09:29:49;99518.72;;;5.01;100.00
53908;BME280;40469;47.998;7.794;2023-12-20T09:32:15;99523.00;;;5.01;100.00
53908;BME280;40469;47.998;7.794;2023-12-20T09:34:40;99523.88;;;5.00;100.00
53908;BME280;40469;47.998;7.794;2023-12-20T09:37:07;99522.97;;;4.99;100.00
53908;BME280;40469;47.998;7.794;2023-12-20T09:39:33;99524.66;;;4.97;100.00
53908;BME280;40469;47.998;7.794;2023-12-20T09:42:03;99523.00;;;5.01;100.00
53908;BME280;40469;47.998;7.794;2023-12-20T09:44:29;99519.47;;;4.97;100.00
53908;BME280;40469;47.998;7.794;2023-12-20T09:46:55;99521.31;;;5.01;100.00
53908;BME280;40469;47.998;7.794;2023-12-20T09:49:21;99517.78;;;4.99;100.00
53908;BME280;40469;47.998;7.794;2023-12-20T09:51:47;99509.28;;;5.03;100.00
53908;BME280;40469;47.998;7.794;2023-12-20T09:54:23;99514.44;;;5.03;100.00
53908;BME280;40469;47.998;7.794;2023-12-20T09:56:49;99529.19;;;5.07;100.00
53908;BME280;40469;47.998;7.794;2023-12-20T09:59:14;99523.94;;;5.04;100.00
53908;BME280;40469;47.998;7.794;2023-12-20T10:01:41;99515.25;;;5.01;100.00
53908;BME280;40469;47.998;7.794;2023-12-20T10:04:08;99512.56;;;4.96;100.00
53908;BME280;40469;47.998;7.794;2023-12-20T10:06:40;99507.44;;;4.99;100.00
53908;BME280;40469;47.998;7.794;2023-12-20T10:09:06;99501.28;;;4.94;100.00
53908;BME280;40469;47.998;7.794;2023-12-20T10:11:31;99505.56;;;4.92;100.00
53908;BME280;40469;47.998;7.794;2023-12-20T10:14:00;99508.22;;;4.95;100.00
53908;BME280;40469;47.998;7.794;2023-12-20T10:16:29;99501.19;;;4.88;100.00
53908;BME280;40469;47.998;7.794;2023-12-20T10:18:55;99502.00;;;4.87;100.00
53908;BME280;40469;47.998;7.794;2023-12-20T10:21:22;99514.34;;;4.99;100.00
53908;BME280;40469;47.998;7.794;2023-12-20T10:23:51;99514.50;;;5.05;100.00
53908;BME280;40469;47.998;7.794;2023-12-20T10:26:26;99517.91;;;5.04;100.00
53908;BME280;40469;47.998;7.794;2023-12-20T10:28:56;99509.25;;;5.02;100.00
53908;BME280;40469;47.998;7.794;2023-12-20T10:31:31;99498.88;;;5.02;100.00
53908;BME280;40469;47.998;7.794;2023-12-20T10:33:57;99501.41;;;4.99;100.00
53908;BME280;40469;47.998;7.794;2023-12-20T10:36:25;99494.25;;;4.87;100.00
53908;BME280;40469;47.998;7.794;2023-12-20T10:38:53;99493.41;;;4.88;100.00
53908;BME280;40469;47.998;7.794;2023-12-20T10:41:27;99490.94;;;4.94;100.00
53908;BME280;40469;47.998;7.794;2023-12-20T10:43:56;99492.66;;;4.93;100.00
53908;BME280;40469;47.998;7.794;2023-12-20T10:46:26;99485.94;;;5.02;100.00
53908;BME280;40469;47.998;7.794;2023-12-20T10:48:53;99489.00;;;5.25;100.00
53908;BME280;40469;47.998;7.794;2023-12-20T10:51:20;99496.06;;;5.32;100.00
53908;BME280;40469;47.998;7.794;2023-12-20T10:53:50;99499.94;;;5.56;100.00
53908;BME280;40469;47.998;7.794;2023-12-20T10:56:17;99494.53;;;5.42;100.00
53908;BME280;40469;47.998;7.794;2023-12-20T10:58:47;99494.34;;;5.34;100.00
53908;BME280;40469;47.998;7.794;2023-12-20T11:01:14;99495.47;;;5.47;100.00
53908;BME280;40469;47.998;7.794;2023-12-20T11:03:48;99498.91;;;5.46;100.00
53908;BME280;40469;47.998;7.794;2023-12-20T11:09:17;99499.75;;;5.45;100.00
53908;BME280;40469;47.998;7.794;2023-12-20T11:14:46;99500.59;;;5.91;100.00
53908;BME280;40469;47.998;7.794;2023-12-20T11:17:12;99505.88;;;6.46;100.00
53908;BME280;40469;47.998;7.794;2023-12-20T11:22:28;99498.00;;;7.04;100.00
53908;BME280;40469;47.998;7.794;2023-12-20T11:24:58;99494.81;;;7.22;100.00
53908;BME280;40469;47.998;7.794;2023-12-20T11:27:23;99508.94;;;7.47;100.00
53908;BME280;40469;47.998;7.794;2023-12-20T11:29:53;99503.31;;;7.90;100.00
53908;BME280;40469;47.998;7.794;2023-12-20T11:34:58;99510.47;;;8.12;100.00
53908;BME280;40469;47.998;7.794;2023-12-20T11:37:31;99502.38;;;7.83;100.00
53908;BME280;40469;47.998;7.794;2023-12-20T11:40:05;99500.91;;;8.11;100.00
53908;BME280;40469;47.998;7.794;2023-12-20T11:42:39;99504.72;;;7.55;100.00
53908;BME280;40469;47.998;7.794;2023-12-20T11:45:08;99492.25;;;7.27;100.00
53908;BME280;40469;47.998;7.794;2023-12-20T11:47:33;99498.09;;;7.88;100.00
53908;BME280;40469;47.998;7.794;2023-12-20T11:50:00;99498.22;;;8.02;100.00
53908;BME280;40469;47.998;7.794;2023-12-20T11:52:29;99496.41;;;7.93;100.00
53908;BME280;40469;47.998;7.794;2023-12-20T11:54:54;99491.38;;;8.10;100.00
53908;BME280;40469;47.998;7.794;2023-12-20T11:57:19;99488.16;;;8.41;100.00
53908;BME280;40469;47.998;7.794;2023-12-20T11:59:45;99483.69;;;8.23;100.00
53908;BME280;40469;47.998;7.794;2023-12-20T12:02:11;99476.72;;;8.20;100.00
53908;BME280;40469;47.998;7.794;2023-12-20T12:04:37;99486.00;;;7.89;100.00
53908;BME280;40469;47.998;7.794;2023-12-20T12:07:02;99486.59;;;8.61;100.00
53908;BME280;40469;47.998;7.794;2023-12-20T12:09:28;99479.56;;;8.49;100.00
53908;BME280;40469;47.998;7.794;2023-12-20T12:11:54;99487.63;;;8.92;100.00
53908;BME280;40469;47.998;7.794;2023-12-20T12:14:20;99482.03;;;8.35;100.00
53908;BME280;40469;47.998;7.794;2023-12-20T12:16:46;99486.19;;;8.13;100.00
53908;BME280;40469;47.998;7.794;2023-12-20T12:19:25;99488.59;;;7.90;100.00
53908;BME280;40469;47.998;7.794;2023-12-20T12:21:52;99473.63;;;7.65;100.00
53908;BME280;40469;47.998;7.794;2023-12-20T12:24:28;99478.31;;;7.18;100.00
53908;BME280;40469;47.998;7.794;2023-12-20T12:26:57;99473.72;;;7.00;100.00
53908;BME280;40469;47.998;7.794;2023-12-20T12:29:22;99482.28;;;6.90;100.00
53908;BME280;40469;47.998;7.794;2023-12-20T12:31:49;99482.19;;;6.84;100.00
53908;BME280;40469;47.998;7.794;2023-12-20T12:34:15;99483.97;;;6.88;100.00
53908;BME280;40469;47.998;7.794;2023-12-20T12:36:41;99484.38;;;7.20;100.00
53908;BME280;40469;47.998;7.794;2023-12-20T12:39:06;99484.31;;;7.16;100.00
53908;BME280;40469;47.998;7.794;2023-12-20T12:41:32;99486.72;;;6.99;100.00
53908;BME280;40469;47.998;7.794;2023-12-20T12:43:57;99494.28;;;6.82;100.00
53908;BME280;40469;47.998;7.794;2023-12-20T12:46:23;99494.25;;;6.80;100.00
53908;BME280;40469;47.998;7.794;2023-12-20T12:48:49;99488.66;;;6.53;100.00
53908;BME280;40469;47.998;7.794;2023-12-20T12:51:15;99488.47;;;6.40;100.00
53908;BME280;40469;47.998;7.794;2023-12-20T12:53:41;99485.81;;;6.36;100.00
53908;BME280;40469;47.998;7.794;2023-12-20T12:56:09;99492.69;;;6.32;100.00
53908;BME280;40469;47.998;7.794;2023-12-20T12:58:34;99483.88;;;6.22;100.00
53908;BME280;40469;47.998;7.794;2023-12-20T13:01:00;99484.63;;;6.15;100.00
53908;BME280;40469;47.998;7.794;2023-12-20T13:03:25;99485.31;;;6.05;100.00
53908;BME280;40469;47.998;7.794;2023-12-20T13:05:50;99474.97;;;6.06;100.00